Time;durP1;ratioP1;P1;durP2;ratioP2;P2;SDS_P1;SDS_P2;PMS_P1;PMS_P2;Temp;Humidity;BMP_temperature;BMP_pressure;BME280_temperature;BME280_humidity;BME280_pressure;Samples;Min_cycle;Max_cycle;Signal;HPM_P1;HPM_P2
2022/01/01 00:02:23;;;;;;;0.20;0.20;;;9.50;99.90;;;;;;5012206;28;20497;-74
2022/01/01 00:04:49;;;;;;;0.10;0.10;;;9.50;99.90;;;;;;5012725;28;20065;-79
2022/01/01 00:07:16;;;;;;;0.10;0.10;;;9.50;99.90;;;;;;5012497;28;20032;-79
2022/01/01 00:09:43;;;;;;;0.28;0.28;;;9.50;99.90;;;;;;5012511;28;20033;-78
2022/01/01 00:12:09;;;;;;;0.20;0.17;;;9.40;99.90;;;;;;5011274;28;20057;-79
2022/01/01 00:14:37;;;;;;;0.70;0.20;;;9.40;99.90;;;;;;5009892;28;20040;-79
2022/01/01 00:17:04;;;;;;;0.15;0.15;;;9.40;99.90;;;;;;5012396;28;20540;-79
2022/01/01 00:19:31;;;;;;;0.63;0.55;;;9.40;99.90;;;;;;5012456;28;20485;-79
2022/01/01 00:22:01;;;;;;;1.25;0.77;;;9.30;99.90;;;;;;5010981;28;20447;-74
2022/01/01 00:24:27;;;;;;;0.00;0.00;;;9.30;99.90;;;;;;5012543;28;20076;-74
2022/01/01 00:26:53;;;;;;;0.00;0.00;;;9.30;99.90;;;;;;5012531;28;20108;-74
2022/01/01 00:29:20;;;;;;;0.10;0.10;;;9.30;99.90;;;;;;5012266;28;20133;-79
2022/01/01 00:31:47;;;;;;;0.00;0.00;;;9.20;99.90;;;;;;5012582;28;20036;-79
2022/01/01 00:34:13;;;;;;;0.00;0.00;;;9.10;99.90;;;;;;5012109;28;20160;-79
2022/01/01 00:36:39;;;;;;;0.00;0.00;;;9.00;99.90;;;;;;4994296;28;20545;-79
2022/01/01 00:39:05;;;;;;;0.00;0.00;;;9.00;99.90;;;;;;5024218;28;20486;-74
2022/01/01 00:41:31;;;;;;;0.00;0.00;;;8.90;99.90;;;;;;4992695;28;20482;-75
2022/01/01 00:43:57;;;;;;;0.22;0.22;;;8.90;99.90;;;;;;4995322;28;20022;-79
2022/01/01 00:46:23;;;;;;;0.00;0.00;;;8.90;99.90;;;;;;4996265;28;20030;-79
2022/01/01 00:48:53;;;;;;;0.00;0.00;;;8.80;99.90;;;;;;5011590;28;20128;-79
2022/01/01 00:51:22;;;;;;;0.00;0.00;;;8.80;99.90;;;;;;5015533;28;20068;-74
2022/01/01 00:53:49;;;;;;;2.38;0.80;;;8.80;99.90;;;;;;5014412;28;20030;-79
2022/01/01 00:56:15;;;;;;;0.00;0.00;;;8.70;99.90;;;;;;5015622;28;20515;-79
2022/01/01 00:58:40;;;;;;;0.00;0.00;;;8.70;99.90;;;;;;5016062;28;20100;-79
2022/01/01 01:01:06;;;;;;;0.15;0.15;;;8.70;99.90;;;;;;5015638;28;20486;-79
2022/01/01 01:03:32;;;;;;;0.00;0.00;;;8.70;99.90;;;;;;5015684;28;20032;-74
2022/01/01 01:05:59;;;;;;;0.10;0.10;;;8.70;99.90;;;;;;5015768;28;20152;-74
2022/01/01 01:08:25;;;;;;;0.13;0.13;;;8.80;99.90;;;;;;5015600;28;20030;-74
2022/01/01 01:10:52;;;;;;;0.98;0.98;;;8.80;99.90;;;;;;5014816;28;20037;-74
2022/01/01 01:13:20;;;;;;;0.00;0.00;;;8.80;99.90;;;;;;5015072;28;20044;-79
2022/01/01 01:15:46;;;;;;;0.65;0.20;;;8.80;99.90;;;;;;5014424;28;20057;-79
2022/01/01 01:18:12;;;;;;;2.30;1.48;;;8.70;99.90;;;;;;5015144;28;20036;-74
2022/01/01 01:20:38;;;;;;;0.00;0.00;;;8.80;99.90;;;;;;5015452;28;20022;-74
2022/01/01 01:23:04;;;;;;;0.20;0.20;;;8.80;99.90;;;;;;5015355;28;20034;-79
2022/01/01 01:25:32;;;;;;;0.00;0.00;;;8.80;99.90;;;;;;5015540;28;20050;-79
2022/01/01 01:28:07;;;;;;;0.55;0.55;;;8.80;99.90;;;;;;5015393;28;20133;-79
2022/01/01 01:30:34;;;;;;;0.10;0.10;;;8.90;99.90;;;;;;5015343;28;20485;-79
2022/01/01 01:32:59;;;;;;;0.30;0.30;;;8.90;99.90;;;;;;5015180;28;20017;-74
2022/01/01 01:35:25;;;;;;;0.00;0.00;;;9.00;99.90;;;;;;5015233;28;20481;-79
2022/01/01 01:37:51;;;;;;;0.03;0.03;;;8.90;99.90;;;;;;5015293;28;20033;-79
2022/01/01 01:40:16;;;;;;;0.45;0.45;;;8.90;99.90;;;;;;5015389;28;20022;-79
2022/01/01 01:42:44;;;;;;;1.13;0.65;;;8.90;99.90;;;;;;5015333;28;20152;-78
2022/01/01 01:45:15;;;;;;;0.08;0.08;;;8.80;99.90;;;;;;5015296;28;20017;-74
2022/01/01 01:47:42;;;;;;;0.00;0.00;;;8.80;99.90;;;;;;5014944;28;20021;-74
2022/01/01 01:50:10;;;;;;;0.10;0.10;;;8.80;99.90;;;;;;5014331;28;20147;-79
2022/01/01 01:52:38;;;;;;;0.05;0.05;;;8.70;99.90;;;;;;5013417;28;20026;-79
2022/01/01 01:55:10;;;;;;;0.32;0.30;;;8.70;99.90;;;;;;5013717;28;20022;-79
2022/01/01 01:57:41;;;;;;;0.00;0.00;;;8.70;99.90;;;;;;5014907;28;20029;-74
2022/01/01 02:00:30;;;;;;;0.30;0.13;;;8.70;99.90;;;;;;5014755;28;20032;-79
2022/01/01 02:02:56;;;;;;;0.20;0.20;;;8.70;99.90;;;;;;5014796;28;20028;-79
2022/01/01 02:05:22;;;;;;;0.22;0.20;;;8.70;99.90;;;;;;5014521;28;20025;-74
2022/01/01 02:07:49;;;;;;;0.30;0.15;;;8.60;99.90;;;;;;5014729;28;20030;-79
2022/01/01 02:10:15;;;;;;;0.00;0.00;;;8.70;99.90;;;;;;5013359;28;20050;-74
2022/01/01 02:12:41;;;;;;;0.00;0.00;;;8.70;99.90;;;;;;5014209;28;20190;-74
2022/01/01 02:15:27;;;;;;;0.00;0.00;;;8.70;99.90;;;;;;5014551;28;20026;-74
2022/01/01 02:17:54;;;;;;;0.80;0.80;;;8.80;99.90;;;;;;5011628;28;20030;-79
2022/01/01 02:20:21;;;;;;;0.10;0.10;;;8.80;99.90;;;;;;5014165;28;20022;-79
2022/01/01 02:22:48;;;;;;;0.00;0.00;;;8.90;99.90;;;;;;5013079;28;20374;-74
2022/01/01 02:25:19;;;;;;;0.00;0.00;;;8.90;99.90;;;;;;5014362;28;20499;-74
2022/01/01 02:27:46;;;;;;;0.10;0.10;;;9.00;99.90;;;;;;5014258;28;20056;-79
2022/01/01 02:30:14;;;;;;;0.13;0.13;;;9.10;99.90;;;;;;5014123;28;20033;-79
2022/01/01 02:32:40;;;;;;;0.65;0.25;;;9.10;99.90;;;;;;5014124;28;20092;-79
2022/01/01 02:35:09;;;;;;;0.82;0.80;;;9.10;99.90;;;;;;5013914;28;20037;-74
2022/01/01 02:37:36;;;;;;;0.80;0.28;;;9.10;99.90;;;;;;5013572;28;20084;-74
2022/01/01 02:40:03;;;;;;;1.20;0.10;;;9.10;99.90;;;;;;5014048;28;20393;-79
2022/01/01 02:42:29;;;;;;;0.00;0.00;;;9.10;99.90;;;;;;5014069;28;20493;-79
2022/01/01 02:44:54;;;;;;;0.00;0.00;;;9.20;99.90;;;;;;5014075;28;20022;-79
2022/01/01 02:47:20;;;;;;;0.00;0.00;;;9.20;99.90;;;;;;5013811;28;20489;-79
2022/01/01 02:49:47;;;;;;;0.10;0.10;;;9.30;99.90;;;;;;5013511;28;20033;-74
2022/01/01 02:52:13;;;;;;;0.00;0.00;;;9.30;99.90;;;;;;5013479;28;20128;-79
2022/01/01 02:54:38;;;;;;;0.10;0.10;;;9.20;99.90;;;;;;5013785;28;20096;-79
2022/01/01 02:57:04;;;;;;;0.00;0.00;;;9.20;99.90;;;;;;5013681;28;20436;-79
2022/01/01 02:59:30;;;;;;;0.40;0.32;;;9.10;99.90;;;;;;5013390;28;20037;-79
2022/01/01 03:01:56;;;;;;;0.60;0.30;;;9.10;99.90;;;;;;5013768;28;20061;-74
2022/01/01 03:04:21;;;;;;;0.10;0.10;;;9.00;99.90;;;;;;5013401;28;20041;-79
2022/01/01 03:06:53;;;;;;;0.38;0.20;;;8.90;99.90;;;;;;5013021;28;20109;-79
2022/01/01 03:09:19;;;;;;;0.00;0.00;;;8.80;99.90;;;;;;5012723;28;20088;-79
2022/01/01 03:11:45;;;;;;;0.00;0.00;;;8.70;99.90;;;;;;5013597;28;20505;-79
2022/01/01 03:14:12;;;;;;;0.00;0.00;;;8.80;99.90;;;;;;5013264;28;20053;-74
2022/01/01 03:16:38;;;;;;;0.00;0.00;;;8.70;99.90;;;;;;5011987;28;20033;-74
2022/01/01 03:19:03;;;;;;;0.10;0.10;;;8.70;99.90;;;;;;5013256;28;20029;-79
2022/01/01 03:21:29;;;;;;;0.00;0.00;;;8.70;99.90;;;;;;5013076;28;20496;-79
2022/01/01 03:23:55;;;;;;;0.05;0.05;;;8.60;99.90;;;;;;5011742;28;20033;-79
2022/01/01 03:26:20;;;;;;;0.15;0.15;;;8.60;99.90;;;;;;5012966;28;20032;-79
2022/01/01 03:28:46;;;;;;;0.00;0.00;;;8.60;99.90;;;;;;5012947;28;20398;-74
2022/01/01 03:31:12;;;;;;;0.00;0.00;;;8.50;99.90;;;;;;5013091;28;20176;-74
2022/01/01 03:33:37;;;;;;;0.00;0.00;;;8.40;99.90;;;;;;5013051;28;20053;-79
2022/01/01 03:36:03;;;;;;;0.57;0.45;;;8.40;99.90;;;;;;5008379;28;20130;-79
2022/01/01 03:38:29;;;;;;;0.00;0.00;;;8.30;99.90;;;;;;4992879;28;20030;-79
2022/01/01 03:40:55;;;;;;;9.82;1.08;;;8.30;99.90;;;;;;4993598;28;20397;-79
2022/01/01 03:43:21;;;;;;;0.30;0.30;;;8.30;99.90;;;;;;4993352;28;20030;-74
2022/01/01 03:45:47;;;;;;;0.00;0.00;;;8.30;99.90;;;;;;4993515;28;20119;-79
2022/01/01 03:48:12;;;;;;;0.00;0.00;;;8.30;99.90;;;;;;5003543;28;20089;-79
2022/01/01 03:50:38;;;;;;;0.20;0.20;;;8.30;99.90;;;;;;5012420;28;20026;-74
2022/01/01 03:53:04;;;;;;;1.10;0.63;;;8.30;99.90;;;;;;5012500;28;20029;-74
2022/01/01 03:55:30;;;;;;;0.65;0.65;;;8.40;99.90;;;;;;5012873;28;20543;-74
2022/01/01 03:57:55;;;;;;;0.00;0.00;;;8.40;99.90;;;;;;5012770;28;20101;-79
2022/01/01 04:00:21;;;;;;;0.25;0.25;;;8.40;99.90;;;;;;5012721;28;20056;-79
2022/01/01 04:02:47;;;;;;;0.15;0.15;;;8.40;99.90;;;;;;5012941;28;20029;-79
2022/01/01 04:05:13;;;;;;;0.55;0.38;;;8.50;99.90;;;;;;5012449;28;20030;-74
2022/01/01 04:07:38;;;;;;;0.00;0.00;;;8.50;99.90;;;;;;5012702;28;20041;-74
2022/01/01 04:10:04;;;;;;;0.00;0.00;;;8.40;99.90;;;;;;5012387;28;20065;-79
2022/01/01 04:12:30;;;;;;;0.00;0.00;;;8.40;99.90;;;;;;5011159;28;20030;-74
2022/01/01 04:14:57;;;;;;;0.10;0.10;;;8.30;99.90;;;;;;5012721;28;20168;-79
2022/01/01 04:17:23;;;;;;;0.47;0.20;;;8.40;99.90;;;;;;5010923;28;20556;-74
2022/01/01 04:19:49;;;;;;;0.08;0.08;;;8.40;99.90;;;;;;5016707;28;20034;-74
2022/01/01 04:22:16;;;;;;;0.00;0.00;;;8.40;99.90;;;;;;5016196;28;20473;-74
2022/01/01 04:24:42;;;;;;;2.58;0.70;;;8.40;99.90;;;;;;5016757;28;20056;-79
2022/01/01 04:27:08;;;;;;;0.00;0.00;;;8.40;99.90;;;;;;5016282;28;20057;-78
2022/01/01 04:29:34;;;;;;;0.00;0.00;;;8.40;99.90;;;;;;5016612;28;20493;-74
2022/01/01 04:32:01;;;;;;;0.00;0.00;;;8.40;99.90;;;;;;5016726;28;20034;-74
2022/01/01 04:34:28;;;;;;;0.10;0.10;;;8.30;99.90;;;;;;5016256;28;20026;-74
2022/01/01 04:37:10;;;;;;;0.00;0.00;;;8.30;99.90;;;;;;5004888;28;20478;-74
2022/01/01 04:39:36;;;;;;;0.08;0.08;;;8.30;99.90;;;;;;4996782;28;20018;-74
2022/01/01 04:42:01;;;;;;;0.00;0.00;;;8.30;99.90;;;;;;4996649;28;20468;-79
2022/01/01 04:44:27;;;;;;;0.10;0.10;;;8.30;99.90;;;;;;4996673;28;20034;-79
2022/01/01 04:46:53;;;;;;;0.10;0.10;;;8.30;99.90;;;;;;4996698;28;20026;-74
2022/01/01 04:49:19;;;;;;;0.08;0.08;;;8.30;99.90;;;;;;5015248;28;20029;-74
2022/01/01 04:51:44;;;;;;;0.20;0.15;;;8.40;99.90;;;;;;5016307;28;20080;-79
2022/01/01 04:54:15;;;;;;;0.10;0.10;;;8.30;99.90;;;;;;5015649;28;20029;-79
2022/01/01 04:56:46;;;;;;;0.10;0.10;;;8.40;99.90;;;;;;5015739;28;20033;-74
2022/01/01 04:59:12;;;;;;;0.03;0.03;;;8.40;99.90;;;;;;5015919;28;20025;-74
2022/01/01 05:01:39;;;;;;;0.00;0.00;;;8.40;99.90;;;;;;5015776;28;20030;-74
2022/01/01 05:04:06;;;;;;;0.08;0.08;;;8.50;99.90;;;;;;5015709;28;20032;-79
2022/01/01 05:06:32;;;;;;;1.95;0.32;;;8.60;99.90;;;;;;5015761;28;20057;-79
2022/01/01 05:08:57;;;;;;;0.25;0.05;;;8.70;99.90;;;;;;5015609;28;20138;-79
2022/01/01 05:11:23;;;;;;;0.00;0.00;;;8.70;99.90;;;;;;5015604;28;20069;-79
2022/01/01 05:13:49;;;;;;;0.00;0.00;;;8.70;99.90;;;;;;5015713;28;20030;-74
2022/01/01 05:16:18;;;;;;;0.28;0.28;;;8.70;99.90;;;;;;5015423;28;20029;-79
2022/01/01 05:18:44;;;;;;;0.00;0.00;;;8.70;99.90;;;;;;5014229;28;20029;-79
2022/01/01 05:21:09;;;;;;;0.00;0.00;;;8.60;99.90;;;;;;5015466;28;20053;-79
2022/01/01 05:23:35;;;;;;;0.00;0.00;;;8.50;99.90;;;;;;5015388;28;20477;-79
2022/01/01 05:26:01;;;;;;;0.20;0.20;;;8.40;99.90;;;;;;5015391;28;20030;-74
2022/01/01 05:28:27;;;;;;;0.00;0.00;;;8.40;99.90;;;;;;5015051;28;20077;-74
2022/01/01 05:30:52;;;;;;;0.95;0.68;;;8.40;99.90;;;;;;5015543;28;20061;-79
2022/01/01 05:33:18;;;;;;;0.00;0.00;;;8.40;99.90;;;;;;5015260;28;20022;-79
2022/01/01 05:35:44;;;;;;;0.00;0.00;;;8.40;99.90;;;;;;5013874;28;20034;-74
2022/01/01 05:38:09;;;;;;;0.32;0.32;;;8.30;99.90;;;;;;4997172;28;20031;-74
2022/01/01 05:40:35;;;;;;;0.05;0.05;;;8.30;99.90;;;;;;4996405;28;20073;-74
2022/01/01 05:43:01;;;;;;;0.10;0.10;;;8.30;99.90;;;;;;4996553;28;20481;-73
2022/01/01 05:45:26;;;;;;;1.10;0.80;;;8.30;99.90;;;;;;4996851;28;20038;-79
2022/01/01 05:47:52;;;;;;;0.00;0.00;;;8.20;99.90;;;;;;5004837;28;20053;-79
2022/01/01 05:50:20;;;;;;;0.00;0.00;;;8.20;99.90;;;;;;5015515;28;20026;-74
2022/01/01 05:52:46;;;;;;;0.15;0.05;;;8.10;99.90;;;;;;5015526;28;20025;-79
2022/01/01 05:55:12;;;;;;;0.00;0.00;;;8.10;99.90;;;;;;5015836;28;20096;-79
2022/01/01 05:57:37;;;;;;;0.08;0.08;;;8.10;99.90;;;;;;5021176;28;20045;-79
2022/01/01 06:00:07;;;;;;;0.00;0.00;;;8.10;99.90;;;;;;5013614;28;20038;-79
2022/01/01 06:02:39;;;;;;;0.20;0.10;;;8.20;99.90;;;;;;5013714;28;20029;-79
2022/01/01 06:05:05;;;;;;;0.00;0.00;;;8.20;99.90;;;;;;5014611;28;20113;-74
2022/01/01 06:07:30;;;;;;;0.00;0.00;;;8.20;99.90;;;;;;5014865;28;20109;-79
2022/01/01 06:09:56;;;;;;;1.60;0.88;;;8.10;99.90;;;;;;5014438;28;20050;-79
2022/01/01 06:12:21;;;;;;;0.00;0.00;;;8.00;99.90;;;;;;5014634;28;20493;-79
2022/01/01 06:14:47;;;;;;;0.03;0.03;;;8.00;99.90;;;;;;5014646;28;20029;-79
2022/01/01 06:17:13;;;;;;;0.00;0.00;;;8.00;99.90;;;;;;5014321;28;20034;-74
2022/01/01 06:19:38;;;;;;;0.05;0.05;;;8.00;99.90;;;;;;5013111;28;20501;-73
2022/01/01 06:22:04;;;;;;;0.10;0.10;;;8.00;99.90;;;;;;5013935;28;20084;-74
2022/01/01 06:24:30;;;;;;;0.00;0.00;;;7.90;99.90;;;;;;5014293;28;20068;-79
2022/01/01 06:26:55;;;;;;;0.00;0.00;;;7.90;99.90;;;;;;5014505;28;20164;-79
2022/01/01 06:29:21;;;;;;;0.00;0.00;;;7.90;99.90;;;;;;5013915;28;20049;-74
2022/01/01 06:31:47;;;;;;;2.00;0.20;;;7.90;99.90;;;;;;5013696;28;20481;-74
2022/01/01 06:34:12;;;;;;;0.20;0.20;;;8.00;99.90;;;;;;5013979;28;20505;-78
2022/01/01 06:36:38;;;;;;;0.00;0.00;;;8.00;99.90;;;;;;5004480;28;20042;-79
2022/01/01 06:39:04;;;;;;;0.30;0.30;;;8.00;99.90;;;;;;4994521;28;20092;-79
2022/01/01 06:41:30;;;;;;;0.00;0.00;;;8.00;99.90;;;;;;4993915;28;20375;-79
2022/01/01 06:43:56;;;;;;;0.55;0.47;;;7.90;99.90;;;;;;4994654;28;20034;-74
2022/01/01 06:46:21;;;;;;;0.00;0.00;;;8.00;99.90;;;;;;4994360;28;20034;-79
2022/01/01 06:48:47;;;;;;;0.00;0.00;;;8.00;99.90;;;;;;5009224;28;20026;-79
2022/01/01 06:51:13;;;;;;;0.10;0.10;;;7.90;99.90;;;;;;5013351;28;20144;-79
2022/01/01 06:53:39;;;;;;;0.00;0.00;;;8.00;99.90;;;;;;5013630;28;20045;-79
2022/01/01 06:56:06;;;;;;;0.20;0.20;;;7.90;99.90;;;;;;5013593;28;20029;-79
2022/01/01 06:58:33;;;;;;;0.10;0.10;;;7.90;99.90;;;;;;5012488;28;20484;-79
2022/01/01 07:00:59;;;;;;;0.45;0.45;;;7.90;99.90;;;;;;5013896;28;20080;-79
2022/01/01 07:03:24;;;;;;;0.00;0.00;;;7.80;99.90;;;;;;5013723;28;20026;-79
2022/01/01 07:05:50;;;;;;;0.13;0.10;;;7.80;99.90;;;;;;5013241;28;20436;-79
2022/01/01 07:08:16;;;;;;;0.00;0.00;;;7.80;99.90;;;;;;5013547;28;20022;-79
2022/01/01 07:10:44;;;;;;;0.75;0.20;;;7.70;99.90;;;;;;5013293;28;20025;-74
2022/01/01 07:13:10;;;;;;;0.30;0.30;;;7.70;99.90;;;;;;5012052;28;20054;-79
2022/01/01 07:15:36;;;;;;;0.40;0.40;;;7.60;99.90;;;;;;5013519;28;20018;-79
2022/01/01 07:18:02;;;;;;;0.03;0.03;;;7.60;99.90;;;;;;5013066;28;20057;-79
2022/01/01 07:20:28;;;;;;;0.10;0.03;;;7.50;99.90;;;;;;5011657;28;20022;-79
2022/01/01 07:22:53;;;;;;;0.00;0.00;;;7.50;99.90;;;;;;5012002;28;20022;-73
2022/01/01 07:25:20;;;;;;;0.38;0.38;;;7.50;99.90;;;;;;5013181;28;20032;-79
2022/01/01 07:27:45;;;;;;;0.52;0.35;;;7.40;99.90;;;;;;5013195;28;20046;-79
2022/01/01 07:30:12;;;;;;;0.10;0.10;;;7.40;99.90;;;;;;5013105;28;20422;-79
2022/01/01 07:32:39;;;;;;;0.10;0.10;;;7.40;99.90;;;;;;5013175;28;20041;-79
2022/01/01 07:35:05;;;;;;;0.00;0.00;;;7.40;99.90;;;;;;5012709;28;20033;-79
2022/01/01 07:37:31;;;;;;;0.00;0.00;;;7.40;99.90;;;;;;5013071;28;20040;-73
2022/01/01 07:39:57;;;;;;;1.08;0.50;;;7.40;99.90;;;;;;5013105;28;20021;-79
2022/01/01 07:42:22;;;;;;;0.10;0.10;;;7.40;99.90;;;;;;5013014;28;20026;-79
2022/01/01 07:44:48;;;;;;;0.00;0.00;;;7.40;99.90;;;;;;5013114;28;20041;-79
2022/01/01 07:47:14;;;;;;;0.20;0.20;;;7.40;99.90;;;;;;5012829;28;20033;-73
2022/01/01 07:49:39;;;;;;;1.55;0.63;;;7.50;99.90;;;;;;5012916;28;20034;-73
2022/01/01 07:52:05;;;;;;;0.00;0.00;;;7.60;99.90;;;;;;5012641;28;20038;-74
2022/01/01 07:54:31;;;;;;;0.68;0.47;;;7.70;99.90;;;;;;5012542;28;20036;-79
2022/01/01 07:56:56;;;;;;;0.60;0.60;;;7.80;99.90;;;;;;5012908;28;20551;-78
2022/01/01 07:59:22;;;;;;;0.45;0.45;;;7.80;99.90;;;;;;5012694;28;20022;-79
2022/01/01 08:01:48;;;;;;;0.10;0.10;;;7.90;99.90;;;;;;5012849;28;20037;-73
2022/01/01 08:04:13;;;;;;;0.00;0.00;;;7.90;99.90;;;;;;5012484;28;20477;-79
2022/01/01 08:06:39;;;;;;;0.10;0.10;;;8.00;99.90;;;;;;5012609;28;20164;-79
2022/01/01 08:09:05;;;;;;;0.00;0.00;;;8.10;99.90;;;;;;5012306;28;20156;-79
2022/01/01 08:11:30;;;;;;;0.00;0.00;;;8.20;99.90;;;;;;5012809;28;20037;-79
2022/01/01 08:13:56;;;;;;;0.00;0.00;;;8.20;99.90;;;;;;5008112;28;20022;-74
2022/01/01 08:16:22;;;;;;;0.00;0.00;;;8.30;99.90;;;;;;4992783;28;20061;-74
2022/01/01 08:18:47;;;;;;;0.55;0.47;;;8.30;99.90;;;;;;4992792;28;20028;-79
2022/01/01 08:21:13;;;;;;;0.15;0.15;;;8.30;99.90;;;;;;4991226;28;20077;-74
2022/01/01 08:23:39;;;;;;;0.10;0.10;;;8.30;99.90;;;;;;4992802;28;20038;-79
2022/01/01 08:26:05;;;;;;;0.22;0.22;;;8.30;99.90;;;;;;4998201;28;20041;-73
2022/01/01 08:28:30;;;;;;;0.00;0.00;;;8.40;99.90;;;;;;5012481;28;20046;-73
2022/01/01 08:30:56;;;;;;;0.00;0.00;;;8.50;99.90;;;;;;5012683;28;20060;-79
2022/01/01 08:33:23;;;;;;;0.00;0.00;;;8.50;99.90;;;;;;5012187;28;20026;-79
2022/01/01 08:35:48;;;;;;;0.20;0.20;;;8.60;99.90;;;;;;5012276;28;20081;-79
2022/01/01 08:38:14;;;;;;;1.60;0.22;;;8.60;99.90;;;;;;5012387;28;20030;-79
2022/01/01 08:40:40;;;;;;;0.00;0.00;;;8.60;99.90;;;;;;5012426;28;20101;-79
2022/01/01 08:43:06;;;;;;;0.00;0.00;;;8.60;99.90;;;;;;5012572;28;20057;-79
2022/01/01 08:45:33;;;;;;;0.73;0.73;;;8.60;99.90;;;;;;5011148;28;20025;-79
2022/01/01 08:47:58;;;;;;;0.00;0.00;;;8.50;99.90;;;;;;5012311;28;20058;-79
2022/01/01 08:50:24;;;;;;;0.40;0.40;;;8.40;99.90;;;;;;5011671;28;20061;-79
2022/01/01 08:52:50;;;;;;;0.47;0.35;;;8.40;99.90;;;;;;5010766;28;20030;-73
2022/01/01 08:55:15;;;;;;;0.00;0.00;;;8.40;99.90;;;;;;5011946;28;20084;-74
2022/01/01 08:57:41;;;;;;;0.22;0.17;;;8.40;99.90;;;;;;5012323;28;20030;-79
2022/01/01 09:00:10;;;;;;;0.10;0.10;;;8.50;99.90;;;;;;5012142;28;20022;-79
2022/01/01 09:02:36;;;;;;;0.70;0.70;;;8.60;99.90;;;;;;5012088;28;20033;-79
2022/01/01 09:05:03;;;;;;;0.00;0.00;;;8.70;99.90;;;;;;5014553;28;20037;-79
2022/01/01 09:07:29;;;;;;;0.00;0.00;;;8.70;99.90;;;;;;5015887;28;20041;-74
2022/01/01 09:09:59;;;;;;;0.00;0.00;;;8.80;99.90;;;;;;5015554;28;20102;-80
2022/01/01 09:12:26;;;;;;;0.47;0.43;;;8.90;99.90;;;;;;5015695;28;20085;-80
2022/01/01 09:14:52;;;;;;;0.30;0.20;;;9.00;99.90;;;;;;5004692;28;20109;-80
2022/01/01 09:17:18;;;;;;;0.22;0.20;;;9.10;99.90;;;;;;4994512;28;20069;-80
2022/01/01 09:19:43;;;;;;;0.00;0.00;;;9.20;99.90;;;;;;4994685;28;20092;-80
2022/01/01 09:22:09;;;;;;;0.10;0.10;;;9.30;99.90;;;;;;4995180;28;20030;-80
2022/01/01 09:24:35;;;;;;;0.00;0.00;;;9.40;99.90;;;;;;4996025;28;20121;-80
2022/01/01 09:27:02;;;;;;;0.05;0.05;;;9.50;99.90;;;;;;5009348;28;20030;-80
2022/01/01 09:29:27;;;;;;;0.00;0.00;;;9.60;99.90;;;;;;5014270;28;20556;-80
2022/01/01 09:31:53;;;;;;;0.00;0.00;;;9.70;99.90;;;;;;5015072;28;20034;-74
2022/01/01 09:34:19;;;;;;;0.20;0.20;;;9.80;99.90;;;;;;5015113;28;20029;-74
2022/01/01 09:36:46;;;;;;;0.00;0.00;;;9.80;99.90;;;;;;5015164;28;20116;-80
2022/01/01 09:39:11;;;;;;;0.00;0.00;;;9.90;99.90;;;;;;5015346;28;20026;-80
2022/01/01 09:41:42;;;;;;;0.20;0.20;;;10.10;99.90;;;;;;5015310;28;20026;-74
2022/01/01 09:44:16;;;;;;;0.00;0.00;;;10.10;99.90;;;;;;5015518;28;20026;-74
2022/01/01 09:46:46;;;;;;;0.85;0.68;;;10.20;99.90;;;;;;5013751;28;20041;-80
2022/01/01 09:49:16;;;;;;;1.25;0.20;;;10.10;99.90;;;;;;5014662;28;20427;-80
2022/01/01 09:51:43;;;;;;;0.00;0.00;;;10.10;99.90;;;;;;5013474;28;20552;-80
2022/01/01 09:54:10;;;;;;;0.20;0.20;;;10.10;99.90;;;;;;5014571;28;20448;-80
2022/01/01 09:56:36;;;;;;;0.13;0.13;;;10.10;99.90;;;;;;5015030;28;20034;-81
2022/01/01 09:59:02;;;;;;;3.10;1.00;;;10.10;99.90;;;;;;5014962;28;20477;-74
2022/01/01 10:01:28;;;;;;;0.63;0.63;;;10.20;99.90;;;;;;5013740;28;20034;-80
2022/01/01 10:03:56;;;;;;;1.38;0.50;;;10.20;99.90;;;;;;5015067;28;20053;-80
2022/01/01 10:06:22;;;;;;;0.38;0.30;;;10.30;99.90;;;;;;5014436;28;20026;-80
2022/01/01 10:08:59;;;;;;;0.00;0.00;;;10.30;99.90;;;;;;5014790;28;20049;-80
2022/01/01 10:11:27;;;;;;;0.25;0.25;;;10.40;99.90;;;;;;5012817;28;20030;-73
2022/01/01 10:13:53;;;;;;;0.00;0.00;;;10.50;99.90;;;;;;5011802;28;20022;-78
2022/01/01 10:16:18;;;;;;;0.20;0.17;;;10.60;99.90;;;;;;4993567;28;20038;-80
2022/01/01 10:18:51;;;;;;;1.50;0.95;;;10.80;99.90;;;;;;4994958;28;20033;-80
2022/01/01 10:21:22;;;;;;;0.17;0.17;;;10.90;99.90;;;;;;4993269;28;20106;-81
2022/01/01 10:23:52;;;;;;;0.20;0.20;;;11.00;99.90;;;;;;5026380;28;20108;-74
2022/01/01 10:29:16;;;;;;;2.25;0.77;;;11.20;99.90;;;;;;5014091;28;20111;-81
2022/01/01 10:32:12;;;;;;;0.10;0.10;;;11.40;99.90;;;;;;5014436;28;20109;-81
2022/01/01 10:34:46;;;;;;;0.08;0.08;;;11.60;99.90;;;;;;5009762;28;20034;-81
2022/01/01 10:37:14;;;;;;;0.45;0.45;;;11.60;99.90;;;;;;5013901;28;20404;-74
2022/01/01 10:39:52;;;;;;;0.45;0.45;;;11.70;99.90;;;;;;5014069;28;20168;-81
2022/01/01 10:42:20;;;;;;;0.20;0.20;;;11.70;99.90;;;;;;5014093;28;20041;-81
2022/01/01 10:44:50;;;;;;;0.20;0.20;;;11.80;99.90;;;;;;5014127;28;20093;-74
2022/01/01 10:47:27;;;;;;;0.00;0.00;;;11.80;99.90;;;;;;5013890;28;20033;-81
2022/01/01 10:52:35;;;;;;;0.65;0.65;;;11.70;99.90;;;;;;5013596;28;20038;-74
2022/01/01 10:55:04;;;;;;;0.20;0.20;;;11.70;99.90;;;;;;5013911;28;20022;-81
2022/01/01 10:57:33;;;;;;;0.03;0.03;;;11.90;99.90;;;;;;5013518;28;20040;-81
2022/01/01 11:00:08;;;;;;;1.65;1.20;;;12.00;99.90;;;;;;5014026;28;20017;-81
2022/01/01 11:02:39;;;;;;;0.00;0.00;;;12.10;99.90;;;;;;5013647;28;20049;-74
2022/01/01 11:05:06;;;;;;;0.20;0.20;;;12.20;99.90;;;;;;5012197;28;20025;-81
2022/01/01 11:07:32;;;;;;;0.00;0.00;;;12.30;99.90;;;;;;5013797;28;20374;-81
2022/01/01 11:09:59;;;;;;;0.20;0.20;;;12.50;99.90;;;;;;5013494;28;20022;-81
2022/01/01 11:12:27;;;;;;;1.08;0.20;;;12.60;99.90;;;;;;5013345;28;20030;-74
2022/01/01 11:14:57;;;;;;;0.63;0.63;;;12.70;99.90;;;;;;5002290;28;20081;-82
2022/01/01 11:17:23;;;;;;;0.75;0.22;;;12.90;99.90;;;;;;4993048;28;20438;-74
2022/01/01 11:19:49;;;;;;;1.90;1.60;;;13.00;99.90;;;;;;4993833;28;20033;-74
2022/01/01 11:22:20;;;;;;;0.00;0.00;;;13.10;99.90;;;;;;4991989;28;20114;-74
2022/01/01 11:24:46;;;;;;;0.20;0.20;;;13.20;99.90;;;;;;5025319;28;20026;-82
2022/01/01 11:27:12;;;;;;;0.28;0.28;;;13.30;99.90;;;;;;5007984;28;20038;-82
2022/01/01 11:29:49;;;;;;;0.00;0.00;;;13.30;99.90;;;;;;5013346;28;20390;-74
2022/01/01 11:32:17;;;;;;;0.15;0.15;;;13.30;99.90;;;;;;5013122;28;20026;-81
2022/01/01 11:34:44;;;;;;;1.40;0.20;;;13.30;99.90;;;;;;5013158;28;20073;-82
2022/01/01 11:37:14;;;;;;;0.30;0.30;;;13.50;99.90;;;;;;5012919;28;20083;-82
2022/01/01 11:39:41;;;;;;;0.17;0.17;;;13.60;99.90;;;;;;5013189;28;20030;-74
2022/01/01 11:42:15;;;;;;;0.40;0.40;;;13.50;99.90;;;;;;5013066;28;20397;-74
2022/01/01 11:44:42;;;;;;;0.00;0.00;;;13.70;99.90;;;;;;5013207;28;20057;-74
2022/01/01 11:47:18;;;;;;;0.20;0.20;;;13.60;99.90;;;;;;5012757;28;20022;-82
2022/01/01 11:49:45;;;;;;;0.63;0.63;;;13.50;99.90;;;;;;5012834;28;20500;-82
2022/01/01 11:52:10;;;;;;;0.20;0.20;;;13.40;99.90;;;;;;5010962;28;20028;-81
2022/01/01 11:54:38;;;;;;;0.20;0.20;;;13.60;99.90;;;;;;5012855;28;20026;-82
2022/01/01 11:57:19;;;;;;;4.57;1.10;;;13.80;99.90;;;;;;5012811;28;20018;-75
2022/01/01 11:59:54;;;;;;;0.00;0.00;;;14.00;99.90;;;;;;5013007;28;20022;-82
2022/01/01 12:02:20;;;;;;;2.22;0.20;;;14.30;99.90;;;;;;5012607;28;20030;-82
2022/01/01 12:04:51;;;;;;;0.75;0.63;;;14.40;99.90;;;;;;5012900;28;20028;-82
2022/01/01 12:07:16;;;;;;;1.75;1.13;;;14.30;99.90;;;;;;5012670;28;20057;-74
2022/01/01 12:10:12;;;;;;;0.10;0.10;;;14.40;99.90;;;;;;5012529;28;20061;-74
2022/01/01 12:12:51;;;;;;;0.10;0.10;;;14.50;99.90;;;;;;5010739;28;20405;-82
2022/01/01 12:15:30;;;;;;;0.40;0.32;;;14.60;99.90;;;;;;4998453;28;20045;-82
2022/01/01 12:18:15;;;;;;;0.10;0.10;;;14.70;99.90;;;;;;4992820;28;20053;-82
2022/01/01 12:20:56;;;;;;;0.17;0.13;;;14.70;99.90;;;;;;4993008;28;20022;-82
2022/01/01 12:23:24;;;;;;;0.10;0.10;;;14.80;99.90;;;;;;4991420;28;20022;-82
2022/01/01 12:25:52;;;;;;;0.30;0.30;;;14.80;99.90;;;;;;4996505;28;20053;-82
2022/01/01 12:28:21;;;;;;;0.95;0.47;;;14.80;99.90;;;;;;5012500;28;20050;-82
2022/01/01 12:30:55;;;;;;;0.30;0.30;;;14.90;99.90;;;;;;5012722;28;20041;-74
2022/01/01 12:33:39;;;;;;;6.38;0.65;;;14.90;99.90;;;;;;5012328;28;20104;-74
2022/01/01 12:36:08;;;;;;;0.10;0.10;;;15.00;99.90;;;;;;5012302;28;20103;-82
2022/01/01 12:38:35;;;;;;;1.17;0.80;;;14.90;99.90;;;;;;5012725;28;20511;-82
2022/01/01 12:41:15;;;;;;;0.20;0.10;;;14.80;99.90;;;;;;5016300;28;20029;-82
2022/01/01 12:43:50;;;;;;;0.50;0.50;;;14.70;99.90;;;;;;5016640;28;20092;-74
2022/01/01 12:46:19;;;;;;;0.00;0.00;;;14.70;99.90;;;;;;5016234;28;20064;-74
2022/01/01 12:48:45;;;;;;;0.00;0.00;;;14.70;99.90;;;;;;5016126;28;20018;-74
2022/01/01 12:51:13;;;;;;;0.10;0.10;;;14.70;99.90;;;;;;5015728;28;20034;-81
2022/01/01 12:53:41;;;;;;;0.20;0.20;;;14.70;99.90;;;;;;5015867;28;20076;-82
2022/01/01 12:56:11;;;;;;;0.47;0.10;;;14.70;99.90;;;;;;5015881;28;20052;-75
2022/01/01 12:58:51;;;;;;;0.10;0.10;;;14.70;99.90;;;;;;5014806;28;20116;-81
2022/01/01 13:01:44;;;;;;;0.43;0.43;;;14.90;99.90;;;;;;5016011;28;20538;-81
2022/01/01 13:04:17;;;;;;;0.98;0.43;;;14.90;99.90;;;;;;5014557;28;20026;-81